sensor_id;sensor_type;location;lat;lon;timestamp;pressure;altitude;pressure_sealevel;temperature;humidity
20455;BME280;10386;54.314;10.022;2023-04-20T00:00:37;102637.78;;;9.03;100.00
20455;BME280;10386;54.314;10.022;2023-04-20T00:03:03;102635.16;;;9.01;100.00
20455;BME280;10386;54.314;10.022;2023-04-20T00:05:30;102630.94;;;8.93;100.00
20455;BME280;10386;54.314;10.022;2023-04-20T00:07:57;102631.75;;;8.95;100.00
20455;BME280;10386;54.314;10.022;2023-04-20T00:10:24;102626.31;;;8.96;100.00
20455;BME280;10386;54.314;10.022;2023-04-20T00:12:51;102614.72;;;8.91;100.00
20455;BME280;10386;54.314;10.022;2023-04-20T00:15:18;102612.69;;;8.98;100.00
20455;BME280;10386;54.314;10.022;2023-04-20T00:17:44;102609.09;;;8.97;100.00
20455;BME280;10386;54.314;10.022;2023-04-20T00:20:12;102602.22;;;8.87;100.00
20455;BME280;10386;54.314;10.022;2023-04-20T00:22:38;102594.06;;;8.89;100.00
20455;BME280;10386;54.314;10.022;2023-04-20T00:25:09;102594.31;;;8.81;100.00
20455;BME280;10386;54.314;10.022;2023-04-20T00:27:36;102599.63;;;8.84;100.00
20455;BME280;10386;54.314;10.022;2023-04-20T00:30:03;102581.78;;;8.79;100.00
20455;BME280;10386;54.314;10.022;2023-04-20T00:32:30;102593.28;;;8.85;100.00
20455;BME280;10386;54.314;10.022;2023-04-20T00:34:57;102597.03;;;8.81;100.00
20455;BME280;10386;54.314;10.022;2023-04-20T00:37:24;102596.88;;;8.86;100.00
20455;BME280;10386;54.314;10.022;2023-04-20T00:39:51;102591.47;;;8.86;100.00
20455;BME280;10386;54.314;10.022;2023-04-20T00:42:18;102596.88;;;8.86;100.00
20455;BME280;10386;54.314;10.022;2023-04-20T00:44:44;102603.25;;;8.85;100.00
20455;BME280;10386;54.314;10.022;2023-04-20T00:47:11;102609.38;;;8.90;100.00
20455;BME280;10386;54.314;10.022;2023-04-20T00:49:38;102595.75;;;8.91;100.00
20455;BME280;10386;54.314;10.022;2023-04-20T00:52:05;102587.81;;;8.87;100.00
20455;BME280;10386;54.314;10.022;2023-04-20T00:54:32;102594.78;;;8.94;100.00
20455;BME280;10386;54.314;10.022;2023-04-20T00:56:59;102600.34;;;8.89;100.00
20455;BME280;10386;54.314;10.022;2023-04-20T00:59:25;102610.53;;;8.83;100.00
20455;BME280;10386;54.314;10.022;2023-04-20T01:01:53;102602.19;;;8.89;100.00
20455;BME280;10386;54.314;10.022;2023-04-20T01:04:20;102599.63;;;8.84;100.00
20455;BME280;10386;54.314;10.022;2023-04-20T01:06:47;102610.56;;;8.81;100.00
20455;BME280;10386;54.314;10.022;2023-04-20T01:09:14;102603.69;;;8.73;100.00
20455;BME280;10386;54.314;10.022;2023-04-20T01:11:41;102603.28;;;8.59;100.00
20455;BME280;10386;54.314;10.022;2023-04-20T01:14:08;102591.34;;;8.64;100.00
20455;BME280;10386;54.314;10.022;2023-04-20T01:16:35;102597.66;;;8.65;100.00
20455;BME280;10386;54.314;10.022;2023-04-20T01:19:02;102586.09;;;8.60;100.00
20455;BME280;10386;54.314;10.022;2023-04-20T01:21:29;102584.72;;;8.47;100.00
20455;BME280;10386;54.314;10.022;2023-04-20T01:23:56;102582.69;;;8.55;100.00
20455;BME280;10386;54.314;10.022;2023-04-20T01:26:27;102581.09;;;8.48;100.00
20455;BME280;10386;54.314;10.022;2023-04-20T01:28:54;102573.97;;;8.45;100.00
20455;BME280;10386;54.314;10.022;2023-04-20T01:31:24;102565.69;;;8.50;100.00
20455;BME280;10386;54.314;10.022;2023-04-20T01:33:51;102551.53;;;8.42;100.00
20455;BME280;10386;54.314;10.022;2023-04-20T01:36:17;102550.44;;;8.47;100.00
20455;BME280;10386;54.314;10.022;2023-04-20T01:38:44;102544.41;;;8.39;100.00
20455;BME280;10386;54.314;10.022;2023-04-20T01:41:11;102535.19;;;8.45;100.00
20455;BME280;10386;54.314;10.022;2023-04-20T01:43:38;102537.06;;;8.43;100.00
20455;BME280;10386;54.314;10.022;2023-04-20T01:46:05;102537.28;;;8.37;100.00
20455;BME280;10386;54.314;10.022;2023-04-20T01:48:32;102533.94;;;8.30;100.00
20455;BME280;10386;54.314;10.022;2023-04-20T01:50:59;102540.28;;;8.29;100.00
20455;BME280;10386;54.314;10.022;2023-04-20T01:53:26;102562.84;;;8.28;100.00
20455;BME280;10386;54.314;10.022;2023-04-20T01:55:54;102558.50;;;8.24;100.00
20455;BME280;10386;54.314;10.022;2023-04-20T01:58:21;102553.13;;;8.23;100.00
20455;BME280;10386;54.314;10.022;2023-04-20T02:00:47;102563.94;;;8.23;100.00
20455;BME280;10386;54.314;10.022;2023-04-20T02:03:14;102534.34;;;8.19;100.00
20455;BME280;10386;54.314;10.022;2023-04-20T02:05:42;102516.34;;;8.16;100.00
20455;BME280;10386;54.314;10.022;2023-04-20T02:08:08;102517.91;;;8.24;100.00
20455;BME280;10386;54.314;10.022;2023-04-20T02:10:35;102530.31;;;8.30;100.00
20455;BME280;10386;54.314;10.022;2023-04-20T02:13:02;102532.25;;;8.26;100.00
20455;BME280;10386;54.314;10.022;2023-04-20T02:15:29;102547.88;;;8.19;100.00
20455;BME280;10386;54.314;10.022;2023-04-20T02:17:56;102545.38;;;8.11;100.00
20455;BME280;10386;54.314;10.022;2023-04-20T02:20:23;102538.41;;;8.04;100.00
20455;BME280;10386;54.314;10.022;2023-04-20T02:22:50;102539.94;;;8.13;100.00
20455;BME280;10386;54.314;10.022;2023-04-20T02:25:17;102547.47;;;8.03;100.00
20455;BME280;10386;54.314;10.022;2023-04-20T02:27:44;102543.13;;;7.98;100.00
20455;BME280;10386;54.314;10.022;2023-04-20T02:30:10;102557.69;;;7.94;100.00
20455;BME280;10386;54.314;10.022;2023-04-20T02:32:37;102572.16;;;7.93;100.00
20455;BME280;10386;54.314;10.022;2023-04-20T02:35:05;102559.31;;;7.99;100.00
20455;BME280;10386;54.314;10.022;2023-04-20T02:37:31;102563.31;;;7.88;100.00
20455;BME280;10386;54.314;10.022;2023-04-20T02:39:58;102566.84;;;7.90;100.00
20455;BME280;10386;54.314;10.022;2023-04-20T02:42:25;102557.78;;;7.91;100.00
20455;BME280;10386;54.314;10.022;2023-04-20T02:44:52;102555.16;;;7.89;100.00
20455;BME280;10386;54.314;10.022;2023-04-20T02:47:18;102541.78;;;7.85;100.00
20455;BME280;10386;54.314;10.022;2023-04-20T02:49:45;102537.00;;;7.93;100.00
20455;BME280;10386;54.314;10.022;2023-04-20T02:52:13;102528.22;;;7.86;100.00
20455;BME280;10386;54.314;10.022;2023-04-20T02:54:40;102528.00;;;7.92;100.00
20455;BME280;10386;54.314;10.022;2023-04-20T02:57:07;102518.16;;;7.90;100.00
20455;BME280;10386;54.314;10.022;2023-04-20T02:59:33;102514.53;;;7.91;100.00
20455;BME280;10386;54.314;10.022;2023-04-20T03:02:00;102514.50;;;7.92;100.00
20455;BME280;10386;54.314;10.022;2023-04-20T03:04:27;102503.06;;;7.84;100.00
20455;BME280;10386;54.314;10.022;2023-04-20T03:06:54;102509.91;;;7.68;100.00
20455;BME280;10386;54.314;10.022;2023-04-20T03:09:21;102497.97;;;7.75;100.00
20455;BME280;10386;54.314;10.022;2023-04-20T03:11:49;102498.50;;;7.85;100.00
20455;BME280;10386;54.314;10.022;2023-04-20T03:14:16;102496.19;;;7.74;100.00
20455;BME280;10386;54.314;10.022;2023-04-20T03:16:42;102482.81;;;7.70;100.00
20455;BME280;10386;54.314;10.022;2023-04-20T03:19:09;102499.84;;;7.72;100.00
20455;BME280;10386;54.314;10.022;2023-04-20T03:21:36;102493.69;;;7.68;100.00
20455;BME280;10386;54.314;10.022;2023-04-20T03:24:04;102494.41;;;7.73;100.00
20455;BME280;10386;54.314;10.022;2023-04-20T03:26:32;102505.44;;;7.67;100.00
20455;BME280;10386;54.314;10.022;2023-04-20T03:28:59;102495.28;;;7.46;100.00
20455;BME280;10386;54.314;10.022;2023-04-20T03:31:25;102502.56;;;7.72;100.00
20455;BME280;10386;54.314;10.022;2023-04-20T03:33:52;102504.59;;;7.65;100.00
20455;BME280;10386;54.314;10.022;2023-04-20T03:36:19;102505.44;;;7.67;100.00
20455;BME280;10386;54.314;10.022;2023-04-20T03:38:46;102501.72;;;7.70;100.00
20455;BME280;10386;54.314;10.022;2023-04-20T03:41:13;102504.75;;;7.61;100.00
20455;BME280;10386;54.314;10.022;2023-04-20T03:43:40;102502.16;;;7.84;100.00
20455;BME280;10386;54.314;10.022;2023-04-20T03:46:07;102505.91;;;7.80;100.00
20455;BME280;10386;54.314;10.022;2023-04-20T03:48:34;102506.00;;;7.77;100.00
20455;BME280;10386;54.314;10.022;2023-04-20T03:51:01;102505.25;;;7.72;100.00
20455;BME280;10386;54.314;10.022;2023-04-20T03:53:27;102508.78;;;7.75;100.00
20455;BME280;10386;54.314;10.022;2023-04-20T03:55:54;102516.25;;;7.67;100.00
20455;BME280;10386;54.314;10.022;2023-04-20T03:58:21;102516.97;;;7.72;100.00
20455;BME280;10386;54.314;10.022;2023-04-20T04:00:48;102520.53;;;7.74;100.00
20455;BME280;10386;54.314;10.022;2023-04-20T04:03:15;102516.69;;;7.81;100.00
20455;BME280;10386;54.314;10.022;2023-04-20T04:05:42;102517.81;;;7.74;100.00
20455;BME280;10386;54.314;10.022;2023-04-20T04:08:09;102527.53;;;7.80;100.00
20455;BME280;10386;54.314;10.022;2023-04-20T04:10:35;102531.34;;;7.74;100.00
20455;BME280;10386;54.314;10.022;2023-04-20T04:13:02;102533.56;;;7.88;100.00
20455;BME280;10386;54.314;10.022;2023-04-20T04:15:29;102521.19;;;7.81;100.00
20455;BME280;10386;54.314;10.022;2023-04-20T04:17:56;102509.53;;;7.79;100.00
20455;BME280;10386;54.314;10.022;2023-04-20T04:20:23;102524.06;;;7.76;100.00
20455;BME280;10386;54.314;10.022;2023-04-20T04:22:49;102521.34;;;7.76;100.00
20455;BME280;10386;54.314;10.022;2023-04-20T04:25:17;102536.47;;;7.82;100.00
20455;BME280;10386;54.314;10.022;2023-04-20T04:27:44;102529.25;;;7.82;100.00
20455;BME280;10386;54.314;10.022;2023-04-20T04:30:12;102531.78;;;7.87;100.00
20455;BME280;10386;54.314;10.022;2023-04-20T04:32:40;102528.22;;;7.86;100.00
20455;BME280;10386;54.314;10.022;2023-04-20T04:35:07;102534.47;;;7.88;100.00
20455;BME280;10386;54.314;10.022;2023-04-20T04:37:34;102539.03;;;7.86;100.00
20455;BME280;10386;54.314;10.022;2023-04-20T04:40:01;102542.72;;;7.84;100.00
20455;BME280;10386;54.314;10.022;2023-04-20T04:42:29;102538.84;;;7.92;100.00
20455;BME280;10386;54.314;10.022;2023-04-20T04:44:56;102522.50;;;7.95;100.00
20455;BME280;10386;54.314;10.022;2023-04-20T04:47:23;102515.34;;;7.93;100.00
20455;BME280;10386;54.314;10.022;2023-04-20T04:49:51;102521.72;;;7.92;100.00
20455;BME280;10386;54.314;10.022;2023-04-20T04:52:18;102522.50;;;7.95;100.00
20455;BME280;10386;54.314;10.022;2023-04-20T04:54:44;102513.81;;;7.86;100.00
20455;BME280;10386;54.314;10.022;2023-04-20T04:57:11;102524.38;;;7.93;100.00
20455;BME280;10386;54.314;10.022;2023-04-20T04:59:38;102509.84;;;7.96;100.00
20455;BME280;10386;54.314;10.022;2023-04-20T05:02:05;102508.19;;;7.92;100.00
20455;BME280;10386;54.314;10.022;2023-04-20T05:04:32;102519.69;;;7.98;100.00
20455;BME280;10386;54.314;10.022;2023-04-20T05:06:59;102513.75;;;7.87;100.00
20455;BME280;10386;54.314;10.022;2023-04-20T05:09:26;102519.00;;;7.92;100.00
20455;BME280;10386;54.314;10.022;2023-04-20T05:11:59;102514.91;;;8.06;100.00
20455;BME280;10386;54.314;10.022;2023-04-20T05:14:30;102511.47;;;8.01;100.00
20455;BME280;10386;54.314;10.022;2023-04-20T05:16:58;102519.53;;;8.03;100.00
20455;BME280;10386;54.314;10.022;2023-04-20T05:19:25;102522.69;;;8.15;100.00
20455;BME280;10386;54.314;10.022;2023-04-20T05:21:52;102526.53;;;8.10;100.00
20455;BME280;10386;54.314;10.022;2023-04-20T05:24:19;102530.81;;;8.15;100.00
20455;BME280;10386;54.314;10.022;2023-04-20T05:26:45;102520.19;;;8.11;100.00
20455;BME280;10386;54.314;10.022;2023-04-20T05:29:14;102536.34;;;8.12;100.00
20455;BME280;10386;54.314;10.022;2023-04-20T05:31:41;102528.47;;;8.05;100.00
20455;BME280;10386;54.314;10.022;2023-04-20T05:34:08;102536.34;;;8.12;100.00
20455;BME280;10386;54.314;10.022;2023-04-20T05:36:35;102545.38;;;8.11;100.00
20455;BME280;10386;54.314;10.022;2023-04-20T05:39:02;102552.88;;;8.03;100.00
20455;BME280;10386;54.314;10.022;2023-04-20T05:41:29;102557.50;;;8.00;100.00
20455;BME280;10386;54.314;10.022;2023-04-20T05:43:55;102547.69;;;7.97;100.00
20455;BME280;10386;54.314;10.022;2023-04-20T05:46:22;102547.69;;;7.97;100.00
20455;BME280;10386;54.314;10.022;2023-04-20T05:48:49;102560.28;;;7.97;100.00
20455;BME280;10386;54.314;10.022;2023-04-20T05:51:16;102550.78;;;8.11;100.00
20455;BME280;10386;54.314;10.022;2023-04-20T05:53:43;102560.53;;;8.17;100.00
20455;BME280;10386;54.314;10.022;2023-04-20T05:56:10;102563.22;;;8.18;100.00
20455;BME280;10386;54.314;10.022;2023-04-20T05:58:37;102566.44;;;8.29;100.00
20455;BME280;10386;54.314;10.022;2023-04-20T06:01:07;102556.22;;;8.37;100.00
20455;BME280;10386;54.314;10.022;2023-04-20T06:03:39;102556.91;;;8.43;100.00
20455;BME280;10386;54.314;10.022;2023-04-20T06:06:06;102558.19;;;8.58;100.00
20455;BME280;10386;54.314;10.022;2023-04-20T06:08:42;102547.38;;;8.58;100.00
20455;BME280;10386;54.314;10.022;2023-04-20T06:11:08;102543.00;;;8.54;100.00
20455;BME280;10386;54.314;10.022;2023-04-20T06:13:35;102540.81;;;8.39;100.00
20455;BME280;10386;54.314;10.022;2023-04-20T06:16:02;102538.19;;;8.62;100.00
20455;BME280;10386;54.314;10.022;2023-04-20T06:18:29;102551.06;;;8.80;100.00
20455;BME280;10386;54.314;10.022;2023-04-20T06:20:56;102546.97;;;8.93;100.00
20455;BME280;10386;54.314;10.022;2023-04-20T06:23:23;102546.16;;;9.14;100.00
20455;BME280;10386;54.314;10.022;2023-04-20T06:25:50;102519.72;;;9.20;100.00
20455;BME280;10386;54.314;10.022;2023-04-20T06:28:16;102528.00;;;8.93;100.00
20455;BME280;10386;54.314;10.022;2023-04-20T06:30:47;102533.09;;;8.77;100.00
20455;BME280;10386;54.314;10.022;2023-04-20T06:33:14;102525.72;;;8.58;100.00
20455;BME280;10386;54.314;10.022;2023-04-20T06:35:42;102533.03;;;9.03;100.00
20455;BME280;10386;54.314;10.022;2023-04-20T06:38:09;102526.59;;;9.29;100.00
20455;BME280;10386;54.314;10.022;2023-04-20T06:40:36;102523.63;;;8.89;100.00
20455;BME280;10386;54.314;10.022;2023-04-20T06:43:03;102532.69;;;8.65;100.00
20455;BME280;10386;54.314;10.022;2023-04-20T06:45:29;102550.69;;;8.66;100.00
20455;BME280;10386;54.314;10.022;2023-04-20T06:47:59;102548.19;;;8.60;100.00
20455;BME280;10386;54.314;10.022;2023-04-20T06:50:26;102565.88;;;8.70;100.00
20455;BME280;10386;54.314;10.022;2023-04-20T06:52:53;102560.47;;;8.70;100.00
20455;BME280;10386;54.314;10.022;2023-04-20T06:55:20;102549.16;;;8.59;100.00
20455;BME280;10386;54.314;10.022;2023-04-20T06:57:46;102563.41;;;8.64;100.00
20455;BME280;10386;54.314;10.022;2023-04-20T07:00:14;102565.09;;;8.66;100.00
20455;BME280;10386;54.314;10.022;2023-04-20T07:02:48;102582.72;;;8.53;100.00
20455;BME280;10386;54.314;10.022;2023-04-20T07:05:17;102556.53;;;8.54;100.00
20455;BME280;10386;54.314;10.022;2023-04-20T07:07:44;102564.84;;;8.48;100.00
20455;BME280;10386;54.314;10.022;2023-04-20T07:10:12;102571.88;;;8.53;100.00
20455;BME280;10386;54.314;10.022;2023-04-20T07:12:40;102558.44;;;8.52;100.00
20455;BME280;10386;54.314;10.022;2023-04-20T07:15:09;102573.94;;;8.71;100.00
20455;BME280;10386;54.314;10.022;2023-04-20T07:17:36;102558.25;;;8.81;100.00
20455;BME280;10386;54.314;10.022;2023-04-20T07:20:05;102565.47;;;8.80;100.00
20455;BME280;10386;54.314;10.022;2023-04-20T07:22:37;102554.25;;;8.91;100.00
20455;BME280;10386;54.314;10.022;2023-04-20T07:25:06;102560.84;;;8.84;100.00
20455;BME280;10386;54.314;10.022;2023-04-20T07:27:34;102563.88;;;8.75;100.00
20455;BME280;10386;54.314;10.022;2023-04-20T07:30:02;102572.06;;;8.98;100.00
20455;BME280;10386;54.314;10.022;2023-04-20T07:32:29;102556.38;;;9.06;100.00
20455;BME280;10386;54.314;10.022;2023-04-20T07:34:56;102567.66;;;9.18;100.00
20455;BME280;10386;54.314;10.022;2023-04-20T07:37:23;102577.94;;;9.09;100.00
20455;BME280;10386;54.314;10.022;2023-04-20T07:39:52;102568.34;;;9.00;100.00
20455;BME280;10386;54.314;10.022;2023-04-20T07:42:19;102583.25;;;8.87;100.00
20455;BME280;10386;54.314;10.022;2023-04-20T07:44:47;102587.94;;;8.84;100.00
20455;BME280;10386;54.314;10.022;2023-04-20T07:47:14;102586.03;;;8.86;100.00
20455;BME280;10386;54.314;10.022;2023-04-20T07:49:42;102565.03;;;8.92;100.00
20455;BME280;10386;54.314;10.022;2023-04-20T07:52:09;102571.72;;;8.82;100.00
20455;BME280;10386;54.314;10.022;2023-04-20T07:54:43;102570.84;;;8.82;100.00
20455;BME280;10386;54.314;10.022;2023-04-20T07:57:28;102561.75;;;8.60;100.00
20455;BME280;10386;54.314;10.022;2023-04-20T07:59:55;102574.22;;;8.64;100.00
20455;BME280;10386;54.314;10.022;2023-04-20T08:02:22;102570.34;;;8.46;100.00
20455;BME280;10386;54.314;10.022;2023-04-20T08:04:49;102569.97;;;8.57;100.00
20455;BME280;10386;54.314;10.022;2023-04-20T08:07:16;102568.91;;;8.61;100.00
20455;BME280;10386;54.314;10.022;2023-04-20T08:09:43;102567.38;;;8.54;100.00
20455;BME280;10386;54.314;10.022;2023-04-20T08:12:10;102572.31;;;8.41;100.00
20455;BME280;10386;54.314;10.022;2023-04-20T08:14:36;102586.47;;;8.49;100.00
20455;BME280;10386;54.314;10.022;2023-04-20T08:17:03;102587.16;;;8.56;100.00
20455;BME280;10386;54.314;10.022;2023-04-20T08:19:30;102598.16;;;8.50;100.00
20455;BME280;10386;54.314;10.022;2023-04-20T08:21:57;102597.41;;;8.46;100.00
20455;BME280;10386;54.314;10.022;2023-04-20T08:24:26;102608.38;;;8.42;100.00
20455;BME280;10386;54.314;10.022;2023-04-20T08:26:53;102622.44;;;8.53;100.00
20455;BME280;10386;54.314;10.022;2023-04-20T08:29:20;102613.53;;;8.49;100.00
20455;BME280;10386;54.314;10.022;2023-04-20T08:31:46;102605.06;;;8.60;100.00
20455;BME280;10386;54.314;10.022;2023-04-20T08:34:16;102615.78;;;8.63;100.00
20455;BME280;10386;54.314;10.022;2023-04-20T08:36:43;102612.84;;;8.43;100.00
20455;BME280;10386;54.314;10.022;2023-04-20T08:39:13;102617.06;;;8.51;100.00
20455;BME280;10386;54.314;10.022;2023-04-20T08:41:40;102616.66;;;8.37;100.00
20455;BME280;10386;54.314;10.022;2023-04-20T08:44:06;102618.84;;;8.26;100.00
20455;BME280;10386;54.314;10.022;2023-04-20T08:46:33;102635.00;;;8.28;100.00
20455;BME280;10386;54.314;10.022;2023-04-20T08:49:00;102633.78;;;8.38;100.00
20455;BME280;10386;54.314;10.022;2023-04-20T08:51:30;102630.41;;;8.31;100.00
20455;BME280;10386;54.314;10.022;2023-04-20T08:54:05;102629.28;;;8.37;100.00
20455;BME280;10386;54.314;10.022;2023-04-20T08:56:36;102625.06;;;8.56;100.00
20455;BME280;10386;54.314;10.022;2023-04-20T08:59:03;102617.06;;;8.51;100.00
20455;BME280;10386;54.314;10.022;2023-04-20T09:01:31;102612.50;;;8.53;100.00
20455;BME280;10386;54.314;10.022;2023-04-20T09:04:02;102616.31;;;8.72;100.00
20455;BME280;10386;54.314;10.022;2023-04-20T09:06:29;102615.44;;;8.72;100.00
20455;BME280;10386;54.314;10.022;2023-04-20T09:08:57;102622.19;;;8.85;100.00
20455;BME280;10386;54.314;10.022;2023-04-20T09:11:25;102626.22;;;8.73;100.00
20455;BME280;10386;54.314;10.022;2023-04-20T09:14:09;102645.59;;;8.61;100.00
20455;BME280;10386;54.314;10.022;2023-04-20T09:16:48;102638.31;;;8.63;100.00
20455;BME280;10386;54.314;10.022;2023-04-20T09:19:23;102641.44;;;8.51;100.00
20455;BME280;10386;54.314;10.022;2023-04-20T09:21:52;102642.13;;;8.58;100.00
20455;BME280;10386;54.314;10.022;2023-04-20T09:24:20;102656.59;;;8.57;100.00
20455;BME280;10386;54.314;10.022;2023-04-20T09:26:47;102654.66;;;8.60;100.00
20455;BME280;10386;54.314;10.022;2023-04-20T09:29:19;102648.38;;;8.60;100.00
20455;BME280;10386;54.314;10.022;2023-04-20T09:31:49;102657.88;;;8.97;100.00
20455;BME280;10386;54.314;10.022;2023-04-20T09:34:17;102655.13;;;9.22;100.00
20455;BME280;10386;54.314;10.022;2023-04-20T09:36:46;102649.81;;;9.19;100.00
20455;BME280;10386;54.314;10.022;2023-04-20T09:39:21;102647.31;;;9.37;100.00
20455;BME280;10386;54.314;10.022;2023-04-20T09:41:49;102645.88;;;9.52;100.00
20455;BME280;10386;54.314;10.022;2023-04-20T09:44:17;102650.25;;;9.56;100.00
20455;BME280;10386;54.314;10.022;2023-04-20T09:46:44;102649.06;;;9.62;100.00
20455;BME280;10386;54.314;10.022;2023-04-20T09:49:13;102654.13;;;9.49;100.00
20455;BME280;10386;54.314;10.022;2023-04-20T09:51:43;102634.38;;;9.21;100.00
20455;BME280;10386;54.314;10.022;2023-04-20T09:54:16;102647.72;;;9.27;100.00
20455;BME280;10386;54.314;10.022;2023-04-20T09:56:44;102629.88;;;9.21;100.00
20455;BME280;10386;54.314;10.022;2023-04-20T09:59:11;102637.47;;;9.35;100.00
20455;BME280;10386;54.314;10.022;2023-04-20T10:01:39;102634.25;;;9.48;100.00
20455;BME280;10386;54.314;10.022;2023-04-20T10:04:07;102630.25;;;9.58;100.00
20455;BME280;10386;54.314;10.022;2023-04-20T10:06:37;102634.47;;;10.11;100.00
20455;BME280;10386;54.314;10.022;2023-04-20T10:09:06;102622.72;;;10.53;100.00
20455;BME280;10386;54.314;10.022;2023-04-20T10:11:35;102607.50;;;10.49;100.00
20455;BME280;10386;54.314;10.022;2023-04-20T10:14:23;102609.00;;;10.56;100.00
20455;BME280;10386;54.314;10.022;2023-04-20T10:17:06;102610.31;;;11.07;100.00
20455;BME280;10386;54.314;10.022;2023-04-20T10:22:08;102583.88;;;10.91;100.00
20455;BME280;10386;54.314;10.022;2023-04-20T10:24:36;102591.03;;;10.94;100.00
20455;BME280;10386;54.314;10.022;2023-04-20T10:27:19;102585.50;;;10.95;100.00
20455;BME280;10386;54.314;10.022;2023-04-20T10:29:46;102589.19;;;11.32;100.00
20455;BME280;10386;54.314;10.022;2023-04-20T10:32:27;102589.97;;;11.54;100.00
20455;BME280;10386;54.314;10.022;2023-04-20T10:35:09;102582.28;;;11.64;100.00
20455;BME280;10386;54.314;10.022;2023-04-20T10:37:49;102584.38;;;11.39;100.00
20455;BME280;10386;54.314;10.022;2023-04-20T10:40:24;102581.28;;;11.28;100.00
20455;BME280;10386;54.314;10.022;2023-04-20T10:42:52;102580.69;;;11.40;100.00
20455;BME280;10386;54.314;10.022;2023-04-20T10:45:19;102567.47;;;11.51;100.00
20455;BME280;10386;54.314;10.022;2023-04-20T10:47:47;102565.28;;;11.96;100.00
20455;BME280;10386;54.314;10.022;2023-04-20T10:50:15;102551.69;;;12.48;100.00
20455;BME280;10386;54.314;10.022;2023-04-20T10:52:43;102546.88;;;12.53;100.00
20455;BME280;10386;54.314;10.022;2023-04-20T10:55:21;102550.16;;;12.42;100.00
20455;BME280;10386;54.314;10.022;2023-04-20T10:57:51;102539.72;;;12.67;100.00
20455;BME280;10386;54.314;10.022;2023-04-20T11:00:24;102541.41;;;12.87;100.00
20455;BME280;10386;54.314;10.022;2023-04-20T11:02:53;102523.75;;;12.26;100.00
20455;BME280;10386;54.314;10.022;2023-04-20T11:05:23;102540.31;;;11.69;100.00
20455;BME280;10386;54.314;10.022;2023-04-20T11:07:59;102547.63;;;11.86;100.00
20455;BME280;10386;54.314;10.022;2023-04-20T11:10:40;102538.06;;;11.96;100.00
20455;BME280;10386;54.314;10.022;2023-04-20T11:13:21;102541.31;;;12.21;100.00
20455;BME280;10386;54.314;10.022;2023-04-20T11:15:48;102538.97;;;12.30;100.00
20455;BME280;10386;54.314;10.022;2023-04-20T11:18:15;102538.31;;;12.08;100.00
20455;BME280;10386;54.314;10.022;2023-04-20T11:20:55;102536.34;;;12.29;100.00
20455;BME280;10386;54.314;10.022;2023-04-20T11:23:23;102522.63;;;12.30;100.00
20455;BME280;10386;54.314;10.022;2023-04-20T11:25:52;102540.31;;;12.40;100.00
20455;BME280;10386;54.314;10.022;2023-04-20T11:28:19;102525.63;;;12.59;100.00
20455;BME280;10386;54.314;10.022;2023-04-20T11:30:46;102536.34;;;12.29;100.00
20455;BME280;10386;54.314;10.022;2023-04-20T11:33:13;102532.34;;;11.83;100.00
20455;BME280;10386;54.314;10.022;2023-04-20T11:35:41;102543.22;;;12.02;100.00
20455;BME280;10386;54.314;10.022;2023-04-20T11:38:08;102536.09;;;12.16;100.00
20455;BME280;10386;54.314;10.022;2023-04-20T11:40:35;102541.84;;;12.10;100.00
20455;BME280;10386;54.314;10.022;2023-04-20T11:43:02;102538.47;;;12.05;100.00
20455;BME280;10386;54.314;10.022;2023-04-20T11:45:31;102549.03;;;12.46;100.00
20455;BME280;10386;54.314;10.022;2023-04-20T11:48:01;102531.50;;;12.52;100.00
20455;BME280;10386;54.314;10.022;2023-04-20T11:50:30;102536.94;;;12.52;100.00
20455;BME280;10386;54.314;10.022;2023-04-20T11:52:56;102528.03;;;12.48;100.00
20455;BME280;10386;54.314;10.022;2023-04-20T11:55:23;102528.50;;;12.39;100.00
20455;BME280;10386;54.314;10.022;2023-04-20T11:57:50;102531.72;;;12.47;100.00
20455;BME280;10386;54.314;10.022;2023-04-20T12:00:17;102528.13;;;12.47;100.00
20455;BME280;10386;54.314;10.022;2023-04-20T12:02:44;102527.38;;;12.60;100.00
20455;BME280;10386;54.314;10.022;2023-04-20T12:05:12;102520.38;;;12.89;100.00
20455;BME280;10386;54.314;10.022;2023-04-20T12:07:39;102522.06;;;13.41;100.00
20455;BME280;10386;54.314;10.022;2023-04-20T12:10:07;102510.94;;;13.28;100.00
20455;BME280;10386;54.314;10.022;2023-04-20T12:12:34;102514.50;;;13.46;100.00
20455;BME280;10386;54.314;10.022;2023-04-20T12:15:02;102505.97;;;13.52;100.00
20455;BME280;10386;54.314;10.022;2023-04-20T12:17:29;102505.31;;;13.31;100.00
20455;BME280;10386;54.314;10.022;2023-04-20T12:19:58;102495.09;;;13.19;100.00
20455;BME280;10386;54.314;10.022;2023-04-20T12:22:25;102503.47;;;13.32;100.00
20455;BME280;10386;54.314;10.022;2023-04-20T12:24:53;102497.06;;;13.33;100.00
20455;BME280;10386;54.314;10.022;2023-04-20T12:27:19;102497.91;;;13.33;100.00
20455;BME280;10386;54.314;10.022;2023-04-20T12:29:46;102503.38;;;13.01;100.00
20455;BME280;10386;54.314;10.022;2023-04-20T12:32:13;102503.97;;;12.90;100.00
20455;BME280;10386;54.314;10.022;2023-04-20T12:34:39;102507.53;;;12.92;100.00
20455;BME280;10386;54.314;10.022;2023-04-20T12:37:06;102501.97;;;12.77;100.00
20455;BME280;10386;54.314;10.022;2023-04-20T12:39:33;102499.72;;;12.85;100.00
20455;BME280;10386;54.314;10.022;2023-04-20T12:42:00;102504.38;;;12.83;100.00
20455;BME280;10386;54.314;10.022;2023-04-20T12:44:27;102499.47;;;13.06;100.00